createdAt,value
2022-12-01T00:00:40.679Z,99.99
2022-12-01T00:01:40.736Z,99.99
2022-12-01T00:02:40.746Z,99.99
2022-12-01T00:03:40.659Z,99.99
2022-12-01T00:04:40.643Z,99.99
2022-12-01T00:05:40.632Z,99.99
2022-12-01T00:06:40.626Z,99.99
2022-12-01T00:07:40.703Z,99.99
2022-12-01T00:08:40.608Z,99.99
2022-12-01T00:09:40.585Z,99.99
2022-12-01T00:10:40.597Z,99.99
2022-12-01T00:11:40.567Z,99.99
2022-12-01T00:12:40.582Z,99.99
2022-12-01T00:13:40.554Z,99.99
2022-12-01T00:14:40.549Z,99.99
2022-12-01T00:15:40.533Z,99.99
2022-12-01T00:16:40.671Z,99.99
2022-12-01T00:17:40.498Z,99.99
2022-12-01T00:18:40.498Z,99.99
2022-12-01T00:19:40.495Z,99.99
2022-12-01T00:20:40.480Z,99.99
2022-12-01T00:21:40.463Z,99.99
2022-12-01T00:22:40.460Z,99.99
2022-12-01T00:23:40.445Z,99.99
2022-12-01T00:24:40.444Z,99.99
2022-12-01T00:25:40.441Z,99.99
2022-12-01T00:26:40.425Z,99.99
2022-12-01T00:27:40.406Z,99.99
2022-12-01T00:28:40.410Z,99.99
2022-12-01T00:29:40.387Z,99.99
2022-12-01T00:30:40.381Z,99.99
2022-12-01T00:31:40.464Z,99.99
2022-12-01T00:32:40.347Z,99.99
2022-12-01T00:33:40.334Z,99.99
2022-12-01T00:34:40.329Z,99.99
2022-12-01T00:35:40.329Z,99.99
2022-12-01T00:36:40.337Z,99.99
2022-12-01T00:37:40.302Z,99.99
2022-12-01T00:38:40.282Z,99.99
2022-12-01T00:39:40.275Z,99.99
2022-12-01T00:40:40.279Z,99.99
2022-12-01T00:41:40.259Z,99.99
2022-12-01T00:42:40.250Z,99.99
2022-12-01T00:43:40.234Z,99.99
2022-12-01T00:44:40.238Z,99.99
2022-12-01T00:45:40.332Z,99.99
2022-12-01T00:46:40.221Z,99.99
2022-12-01T00:47:40.192Z,99.99
2022-12-01T00:48:40.188Z,99.99
2022-12-01T00:49:49.083Z,99.99
2022-12-01T00:50:40.163Z,99.99
2022-12-01T00:51:40.169Z,99.99
2022-12-01T00:52:40.143Z,99.99
2022-12-01T00:53:40.135Z,99.99
2022-12-01T00:54:40.133Z,99.99
2022-12-01T00:55:40.104Z,99.99
2022-12-01T00:56:40.095Z,99.99
2022-12-01T00:57:40.097Z,99.99
2022-12-01T00:58:40.091Z,99.99
2022-12-01T00:59:40.072Z,99.99
2022-12-01T01:00:40.112Z,99.99
2022-12-01T01:01:40.108Z,99.99
2022-12-01T01:02:40.133Z,99.99
2022-12-01T01:03:40.038Z,99.99
2022-12-01T01:04:40.029Z,99.99
2022-12-01T01:05:40.013Z,99.99
2022-12-01T01:06:39.994Z,99.99
2022-12-01T01:07:40.043Z,99.99
2022-12-01T01:08:40.010Z,99.99
2022-12-01T01:09:39.970Z,99.99
2022-12-01T01:10:39.968Z,99.99
2022-12-01T01:11:39.963Z,99.99
2022-12-01T01:12:39.940Z,99.99
2022-12-01T01:13:39.920Z,99.99
2022-12-01T01:14:39.923Z,99.99
2022-12-01T01:15:39.899Z,99.99
2022-12-01T01:16:39.966Z,99.99
2022-12-01T01:17:39.899Z,99.99
2022-12-01T01:18:39.881Z,99.99
2022-12-01T01:19:39.857Z,99.99
2022-12-01T01:20:39.859Z,99.99
2022-12-01T01:21:39.850Z,99.99
2022-12-01T01:22:39.829Z,99.99
2022-12-01T01:23:39.823Z,99.99
2022-12-01T01:24:39.803Z,99.99
2022-12-01T01:25:39.801Z,99.99
2022-12-01T01:26:39.795Z,99.99
2022-12-01T01:27:39.790Z,99.99
2022-12-01T01:28:39.771Z,99.99
2022-12-01T01:29:39.760Z,99.99
2022-12-01T01:30:39.778Z,99.99
2022-12-01T01:31:39.729Z,99.99
2022-12-01T01:32:39.745Z,99.99
2022-12-01T01:33:39.732Z,99.99
2022-12-01T01:34:39.707Z,99.99
2022-12-01T01:35:39.695Z,99.99
2022-12-01T01:36:39.685Z,99.99
2022-12-01T01:37:39.687Z,99.99
2022-12-01T01:38:39.673Z,99.99
2022-12-01T01:39:39.655Z,99.99
2022-12-01T01:40:39.653Z,99.99
2022-12-01T01:41:39.637Z,99.99
2022-12-01T01:42:39.625Z,99.99
2022-12-01T01:43:39.617Z,99.99
2022-12-01T01:44:39.594Z,99.99
2022-12-01T01:45:39.620Z,99.99
2022-12-01T01:46:39.581Z,99.99
2022-12-01T01:47:39.580Z,99.99
2022-12-01T01:48:39.597Z,99.99
2022-12-01T01:49:39.547Z,99.99
2022-12-01T01:50:39.533Z,99.99
2022-12-01T01:51:39.528Z,99.99
2022-12-01T01:52:39.512Z,99.99
2022-12-01T01:53:39.533Z,99.99
2022-12-01T01:54:39.492Z,99.99
2022-12-01T01:55:39.498Z,99.99
2022-12-01T01:56:39.484Z,99.99
2022-12-01T01:57:39.474Z,99.99
2022-12-01T01:58:39.454Z,99.99
2022-12-01T01:59:39.451Z,99.99
2022-12-01T02:00:39.463Z,99.99
2022-12-01T02:01:39.534Z,99.99
2022-12-01T02:02:39.463Z,99.99
2022-12-01T02:03:39.404Z,99.99
2022-12-01T02:04:39.413Z,99.99
2022-12-01T02:05:39.380Z,99.99
2022-12-01T02:06:39.378Z,99.99
2022-12-01T02:07:39.402Z,99.99
2022-12-01T02:08:39.388Z,99.99
2022-12-01T02:09:39.339Z,99.99
2022-12-01T02:10:39.330Z,99.99
2022-12-01T02:11:39.338Z,99.99
2022-12-01T02:12:39.303Z,99.99
2022-12-01T02:13:39.301Z,99.99
2022-12-01T02:14:39.281Z,99.99
2022-12-01T02:15:39.270Z,99.99
2022-12-01T02:16:39.324Z,99.99
2022-12-01T02:17:41.837Z,99.99
2022-12-01T02:18:39.245Z,99.99
2022-12-01T02:19:39.235Z,99.99
2022-12-01T02:20:39.249Z,99.99
2022-12-01T02:21:39.220Z,99.99
2022-12-01T02:22:39.202Z,99.99
2022-12-01T02:23:39.214Z,99.99
2022-12-01T02:24:39.192Z,99.99
2022-12-01T02:25:39.164Z,99.99
2022-12-01T02:26:39.170Z,99.99
2022-12-01T02:27:39.155Z,99.99
2022-12-01T02:28:47.706Z,99.99
2022-12-01T02:29:39.147Z,99.99
2022-12-01T02:30:39.196Z,99.99
2022-12-01T02:31:39.128Z,99.99
2022-12-01T02:32:39.092Z,99.99
2022-12-01T02:33:39.089Z,99.99
2022-12-01T02:34:39.082Z,99.99
2022-12-01T02:35:39.094Z,99.99
2022-12-01T02:36:39.074Z,99.99
2022-12-01T02:37:39.041Z,99.99
2022-12-01T02:38:39.043Z,99.99
2022-12-01T02:39:39.020Z,99.99
2022-12-01T02:40:39.033Z,99.99
2022-12-01T02:41:39.013Z,99.99
2022-12-01T02:42:38.988Z,99.99
2022-12-01T02:43:38.995Z,99.99
2022-12-01T02:44:38.967Z,99.99
2022-12-01T02:45:38.971Z,99.99
2022-12-01T02:46:38.997Z,99.99
2022-12-01T02:47:38.936Z,99.99
2022-12-01T02:48:38.929Z,99.99
2022-12-01T02:49:38.924Z,99.99
2022-12-01T02:50:38.908Z,99.99
2022-12-01T02:51:38.902Z,99.99
2022-12-01T02:52:38.910Z,99.99
2022-12-01T02:53:38.877Z,99.99
2022-12-01T02:54:38.869Z,99.99
2022-12-01T02:55:38.851Z,99.99
2022-12-01T02:56:38.850Z,99.99
2022-12-01T02:57:38.839Z,99.99
2022-12-01T02:58:38.834Z,99.99
2022-12-01T02:59:38.809Z,99.99
2022-12-01T03:00:38.812Z,99.99
2022-12-01T03:01:38.861Z,99.99
2022-12-01T03:02:38.866Z,99.99
2022-12-01T03:03:38.772Z,99.99
2022-12-01T03:04:38.770Z,99.99
2022-12-01T03:05:38.756Z,99.99
2022-12-01T03:06:38.737Z,99.99
2022-12-01T03:07:38.783Z,99.99
2022-12-01T03:08:38.750Z,99.99
2022-12-01T03:09:38.719Z,99.99
2022-12-01T03:10:38.696Z,99.99
2022-12-01T03:11:38.699Z,99.99
2022-12-01T03:12:38.674Z,99.99
2022-12-01T03:13:38.692Z,99.99
2022-12-01T03:14:38.668Z,99.99
2022-12-01T03:15:38.691Z,99.99
2022-12-01T03:16:38.633Z,99.99
2022-12-01T03:17:38.625Z,99.99
2022-12-01T03:18:38.616Z,99.99
2022-12-01T03:19:38.602Z,99.99
2022-12-01T03:20:38.621Z,99.99
2022-12-01T03:21:38.586Z,99.99
2022-12-01T03:22:38.583Z,99.99
2022-12-01T03:23:38.555Z,99.99
2022-12-01T03:24:38.574Z,99.99
2022-12-01T03:25:38.548Z,99.99
2022-12-01T03:26:38.537Z,99.99
2022-12-01T03:27:38.588Z,99.99
2022-12-01T03:28:38.537Z,99.99
2022-12-01T03:29:38.496Z,99.99
2022-12-01T03:30:38.496Z,99.99
2022-12-01T03:31:38.513Z,99.99
2022-12-01T03:32:38.475Z,99.99
2022-12-01T03:33:38.455Z,99.99
2022-12-01T03:34:38.444Z,99.99
2022-12-01T03:35:38.444Z,99.99
2022-12-01T03:36:38.430Z,99.99
2022-12-01T03:37:38.423Z,99.99
2022-12-01T03:38:38.412Z,99.99
2022-12-01T03:39:38.405Z,99.99
2022-12-01T03:40:38.404Z,99.99
2022-12-01T03:41:38.410Z,99.99
2022-12-01T03:42:38.365Z,99.99
2022-12-01T03:43:38.355Z,99.99
2022-12-01T03:44:38.342Z,99.99
2022-12-01T03:45:38.328Z,99.99
2022-12-01T03:46:38.372Z,99.99
2022-12-01T03:47:38.335Z,99.99
2022-12-01T03:48:38.291Z,99.99
2022-12-01T03:49:38.285Z,99.99
2022-12-01T03:50:38.276Z,99.99
2022-12-01T03:51:38.268Z,99.99
2022-12-01T03:52:38.272Z,99.99
2022-12-01T03:53:38.243Z,99.99
2022-12-01T03:54:38.255Z,99.99
2022-12-01T03:55:38.228Z,99.99
2022-12-01T03:56:38.248Z,99.99
2022-12-01T03:57:38.224Z,99.99
2022-12-01T03:58:38.192Z,99.99
2022-12-01T03:59:38.180Z,99.99
2022-12-01T04:00:38.219Z,99.99
2022-12-01T04:01:38.287Z,99.99
2022-12-01T04:02:38.275Z,99.99
2022-12-01T04:03:38.140Z,99.99
2022-12-01T04:04:38.139Z,99.99
2022-12-01T04:05:38.121Z,99.99
2022-12-01T04:06:38.139Z,99.99
2022-12-01T04:07:45.746Z,99.99
2022-12-01T04:08:38.098Z,99.99
2022-12-01T04:09:38.074Z,99.99
2022-12-01T04:10:38.088Z,99.99
2022-12-01T04:11:38.061Z,99.99
2022-12-01T04:12:38.088Z,99.99
2022-12-01T04:13:38.039Z,99.99
2022-12-01T04:14:38.050Z,99.99
2022-12-01T04:15:38.057Z,99.99
2022-12-01T04:16:38.002Z,99.99
2022-12-01T04:17:37.994Z,99.99
2022-12-01T04:18:37.998Z,99.99
2022-12-01T04:19:37.980Z,99.99
2022-12-01T04:20:37.990Z,99.99
2022-12-01T04:21:37.955Z,99.99
2022-12-01T04:22:37.947Z,99.99
2022-12-01T04:23:37.928Z,99.99
2022-12-01T04:24:37.922Z,99.99
2022-12-01T04:25:37.959Z,99.99
2022-12-01T04:26:37.899Z,99.99
2022-12-01T04:27:37.895Z,99.99
2022-12-01T04:28:37.895Z,99.99
2022-12-01T04:29:37.879Z,99.99
2022-12-01T04:30:37.875Z,99.99
2022-12-01T04:31:38.025Z,99.99
2022-12-01T04:32:37.862Z,99.99
2022-12-01T04:33:37.823Z,99.99
2022-12-01T04:34:37.819Z,99.99
2022-12-01T04:35:37.960Z,99.99
2022-12-01T04:36:37.902Z,99.99
2022-12-01T04:37:37.869Z,99.99
2022-12-01T04:38:37.786Z,99.99
2022-12-01T04:39:37.780Z,99.99
2022-12-01T04:40:37.759Z,99.99
2022-12-01T04:41:37.786Z,99.99
2022-12-01T04:42:37.736Z,99.99
2022-12-01T04:43:37.727Z,99.99
2022-12-01T04:44:37.759Z,99.99
2022-12-01T04:45:37.699Z,99.99
2022-12-01T04:46:37.766Z,99.99
2022-12-01T04:47:37.692Z,99.99
2022-12-01T04:48:37.687Z,99.99
2022-12-01T04:49:37.655Z,99.99
2022-12-01T04:50:37.678Z,99.99
2022-12-01T04:51:37.634Z,99.99
2022-12-01T04:52:37.648Z,99.99
2022-12-01T04:53:37.629Z,99.99
2022-12-01T04:54:37.615Z,99.99
2022-12-01T04:55:37.597Z,99.99
2022-12-01T04:56:37.585Z,99.99
2022-12-01T04:57:37.569Z,99.50
2022-12-01T04:58:37.579Z,99.99
2022-12-01T04:59:37.560Z,99.71
2022-12-01T05:00:37.646Z,99.99
2022-12-01T05:01:37.602Z,99.99
2022-12-01T05:02:37.539Z,99.99
2022-12-01T05:03:37.534Z,99.99
2022-12-01T05:04:37.523Z,99.81
2022-12-01T05:05:37.500Z,99.99
2022-12-01T05:06:37.494Z,99.99
2022-12-01T05:07:37.499Z,99.91
2022-12-01T05:08:37.467Z,99.99
2022-12-01T05:09:37.469Z,99.99
2022-12-01T05:10:37.442Z,99.99
2022-12-01T05:11:37.429Z,99.99
2022-12-01T05:12:37.414Z,99.99
2022-12-01T05:13:37.420Z,99.99
2022-12-01T05:14:37.397Z,99.99
2022-12-01T05:15:37.400Z,99.91
2022-12-01T05:16:37.447Z,99.99
2022-12-01T05:17:37.402Z,99.91
2022-12-01T05:18:37.384Z,99.99
2022-12-01T05:19:37.356Z,99.99
2022-12-01T05:20:37.344Z,99.91
2022-12-01T05:21:37.323Z,99.91
2022-12-01T05:23:04.464Z,99.71
2022-12-01T05:23:38.303Z,99.50
2022-12-01T05:24:37.300Z,99.40
2022-12-01T05:25:37.309Z,99.91
2022-12-01T05:26:37.297Z,99.60
2022-12-01T05:27:37.255Z,99.81
2022-12-01T05:28:37.267Z,99.81
2022-12-01T05:29:37.235Z,99.91
2022-12-01T05:30:37.232Z,99.60
2022-12-01T05:31:37.299Z,99.71
2022-12-01T05:32:37.236Z,99.99
2022-12-01T05:33:37.196Z,99.99
2022-12-01T05:34:37.190Z,99.99
2022-12-01T05:35:37.185Z,99.99
2022-12-01T05:36:37.166Z,99.91
2022-12-01T05:37:37.169Z,99.99
2022-12-01T05:38:37.160Z,99.99
2022-12-01T05:39:37.146Z,99.99
2022-12-01T05:40:37.122Z,99.99
2022-12-01T05:41:37.132Z,99.99
2022-12-01T05:42:37.105Z,99.99
2022-12-01T05:43:37.089Z,99.99
2022-12-01T05:44:37.097Z,99.99
2022-12-01T05:45:37.134Z,99.99
2022-12-01T05:46:44.595Z,99.99
2022-12-01T05:47:37.047Z,99.99
2022-12-01T05:48:37.058Z,99.99
2022-12-01T05:49:37.039Z,99.99
2022-12-01T05:50:37.020Z,99.99
2022-12-01T05:51:37.030Z,99.99
2022-12-01T05:52:37.000Z,99.99
2022-12-01T05:53:36.987Z,99.99
2022-12-01T05:54:37.010Z,99.99
2022-12-01T05:55:36.977Z,99.99
2022-12-01T05:56:36.961Z,99.99
2022-12-01T05:57:36.954Z,99.99
2022-12-01T05:58:36.933Z,99.99
2022-12-01T05:59:36.930Z,99.99
2022-12-01T06:00:42.268Z,99.99
2022-12-01T06:01:37.953Z,99.99
2022-12-01T06:02:36.901Z,99.99
2022-12-01T06:03:36.888Z,99.99
2022-12-01T06:04:36.906Z,99.99
2022-12-01T06:05:36.881Z,99.99
2022-12-01T06:06:36.869Z,99.99
2022-12-01T06:07:36.912Z,99.99
2022-12-01T06:08:36.833Z,99.99
2022-12-01T06:09:36.813Z,99.99
2022-12-01T06:10:36.822Z,99.99
2022-12-01T06:11:36.804Z,99.99
2022-12-01T06:12:36.980Z,99.99
2022-12-01T06:13:36.783Z,99.99
2022-12-01T06:14:36.767Z,99.99
2022-12-01T06:15:36.767Z,99.99
2022-12-01T06:16:36.829Z,99.99
2022-12-01T06:17:40.220Z,99.99
2022-12-01T06:18:36.727Z,99.99
2022-12-01T06:19:36.728Z,99.99
2022-12-01T06:20:36.722Z,99.99
2022-12-01T06:21:36.689Z,99.99
2022-12-01T06:22:36.711Z,99.99
2022-12-01T06:23:36.689Z,99.99
2022-12-01T06:24:36.669Z,99.99
2022-12-01T06:25:36.669Z,99.99
2022-12-01T06:26:36.650Z,99.99
2022-12-01T06:27:36.656Z,99.99
2022-12-01T06:28:36.628Z,99.99
2022-12-01T06:29:47.839Z,99.99
2022-12-01T06:30:37.612Z,99.99
2022-12-01T06:31:36.663Z,99.99
2022-12-01T06:32:36.662Z,99.99
2022-12-01T06:33:36.589Z,99.99
2022-12-01T06:34:36.564Z,99.99
2022-12-01T06:35:36.561Z,99.99
2022-12-01T06:36:36.558Z,99.99
2022-12-01T06:37:36.531Z,99.99
2022-12-01T06:38:36.528Z,99.99
2022-12-01T06:39:36.516Z,99.99
2022-12-01T06:40:36.518Z,99.99
2022-12-01T06:41:36.499Z,99.99
2022-12-01T06:42:36.483Z,99.99
2022-12-01T06:43:36.468Z,99.99
2022-12-01T06:44:36.460Z,99.99
2022-12-01T06:45:36.525Z,99.99
2022-12-01T06:46:36.522Z,99.99
2022-12-01T06:47:36.427Z,99.99
2022-12-01T06:48:36.429Z,99.99
2022-12-01T06:49:36.427Z,99.99
2022-12-01T06:50:36.401Z,99.99
2022-12-01T06:51:36.380Z,99.99
2022-12-01T06:52:36.391Z,99.99
2022-12-01T06:53:36.359Z,99.99
2022-12-01T06:54:36.375Z,99.99
2022-12-01T06:55:36.354Z,99.99
2022-12-01T06:56:36.320Z,99.99
2022-12-01T06:57:36.341Z,99.99
2022-12-01T06:58:36.308Z,99.99
2022-12-01T06:59:36.298Z,99.99
2022-12-01T07:00:36.301Z,99.99
2022-12-01T07:01:36.335Z,99.99
2022-12-01T07:02:36.319Z,99.99
2022-12-01T07:03:36.272Z,99.99
2022-12-01T07:04:36.262Z,99.99
2022-12-01T07:05:36.237Z,99.99
2022-12-01T07:06:36.232Z,99.99
2022-12-01T07:07:36.245Z,99.99
2022-12-01T07:08:36.234Z,99.99
2022-12-01T07:09:36.224Z,99.99
2022-12-01T07:10:36.198Z,99.99
2022-12-01T07:11:36.181Z,99.99
2022-12-01T07:12:36.160Z,99.99
2022-12-01T07:13:36.157Z,99.99
2022-12-01T07:14:36.148Z,99.99
2022-12-01T07:15:36.134Z,99.99
2022-12-01T07:16:36.234Z,99.99
2022-12-01T07:17:36.113Z,99.99
2022-12-01T07:18:36.092Z,99.99
2022-12-01T07:19:36.089Z,99.99
2022-12-01T07:20:36.082Z,99.99
2022-12-01T07:21:36.076Z,99.99
2022-12-01T07:22:36.069Z,99.99
2022-12-01T07:23:36.049Z,99.99
2022-12-01T07:24:36.049Z,99.99
2022-12-01T07:25:43.599Z,99.99
2022-12-01T07:26:45.918Z,99.99
2022-12-01T07:27:36.019Z,99.99
2022-12-01T07:28:36.005Z,99.99
2022-12-01T07:29:36.014Z,99.99
2022-12-01T07:30:36.079Z,99.99
2022-12-01T07:31:35.977Z,99.99
2022-12-01T07:32:35.971Z,99.99
2022-12-01T07:33:35.941Z,99.99
2022-12-01T07:34:35.936Z,99.99
2022-12-01T07:35:35.924Z,99.99
2022-12-01T07:36:35.906Z,99.98
2022-12-01T07:37:35.923Z,99.99
2022-12-01T07:38:35.900Z,99.76
2022-12-01T07:39:35.884Z,99.55
2022-12-01T07:40:35.887Z,99.60
2022-12-01T07:41:35.888Z,99.99
2022-12-01T07:42:35.862Z,99.91
2022-12-01T07:43:35.865Z,99.40
2022-12-01T07:44:35.865Z,99.60
2022-12-01T07:45:35.812Z,99.71
2022-12-01T07:46:35.832Z,99.45
2022-12-01T07:47:35.807Z,99.45
2022-12-01T07:48:35.785Z,99.45
2022-12-01T07:49:35.779Z,99.45
2022-12-01T07:50:35.781Z,99.35
2022-12-01T07:51:35.752Z,99.35
2022-12-01T07:52:35.755Z,99.76
2022-12-01T07:53:35.756Z,99.55
2022-12-01T07:54:35.716Z,99.45
2022-12-01T07:55:35.721Z,99.24
2022-12-01T07:56:35.719Z,99.29
2022-12-01T07:57:35.696Z,99.35
2022-12-01T07:58:35.705Z,99.98
2022-12-01T07:59:35.699Z,99.99
2022-12-01T08:00:35.657Z,99.98
2022-12-01T08:01:38.276Z,99.99
2022-12-01T08:02:35.674Z,99.99
2022-12-01T08:03:35.623Z,98.99
2022-12-01T08:04:35.621Z,99.24
2022-12-01T08:05:35.623Z,99.35
2022-12-01T08:06:35.595Z,99.14
2022-12-01T08:07:35.618Z,98.93
2022-12-01T08:08:35.592Z,99.04
2022-12-01T08:09:35.585Z,98.83
2022-12-01T08:10:35.604Z,98.62
2022-12-01T08:11:35.545Z,98.72
2022-12-01T08:12:35.555Z,98.62
2022-12-01T08:13:43.424Z,98.72
2022-12-01T08:14:35.547Z,98.57
2022-12-01T08:15:45.528Z,98.93
2022-12-01T08:16:43.049Z,98.88
2022-12-01T08:17:35.523Z,99.04
2022-12-01T08:18:35.497Z,98.93
2022-12-01T08:19:35.467Z,98.93
2022-12-01T08:20:35.468Z,98.62
2022-12-01T08:21:35.447Z,98.93
2022-12-01T08:22:35.431Z,98.72
2022-12-01T08:23:35.422Z,98.93
2022-12-01T08:24:35.401Z,98.57
2022-12-01T08:25:35.395Z,98.83
2022-12-01T08:26:35.386Z,98.83
2022-12-01T08:27:35.398Z,99.04
2022-12-01T08:28:35.419Z,98.83
2022-12-01T08:29:35.365Z,99.45
2022-12-01T08:30:35.341Z,98.72
2022-12-01T08:31:35.354Z,98.72
2022-12-01T08:32:35.327Z,98.72
2022-12-01T08:33:35.315Z,98.62
2022-12-01T08:34:35.304Z,98.93
2022-12-01T08:35:35.312Z,98.57
2022-12-01T08:36:35.275Z,98.93
2022-12-01T08:37:35.294Z,98.62
2022-12-01T08:38:35.263Z,99.04
2022-12-01T08:39:35.246Z,98.88
2022-12-01T08:40:35.232Z,98.31
2022-12-01T08:41:35.241Z,97.99
2022-12-01T08:42:35.246Z,98.62
2022-12-01T08:43:56.769Z,98.36
2022-12-01T08:44:36.249Z,98.10
2022-12-01T08:45:35.190Z,98.52
2022-12-01T08:46:35.258Z,98.36
2022-12-01T08:47:35.185Z,98.20
2022-12-01T08:48:35.175Z,98.16
2022-12-01T08:49:35.149Z,98.57
2022-12-01T08:50:35.133Z,98.16
2022-12-01T08:51:35.118Z,98.26
2022-12-01T08:52:35.122Z,97.53
2022-12-01T08:53:35.104Z,97.53
2022-12-01T08:54:35.105Z,97.27
2022-12-01T08:55:35.103Z,97.43
2022-12-01T08:56:35.075Z,97.53
2022-12-01T08:57:35.073Z,97.43
2022-12-01T08:58:35.077Z,97.74
2022-12-01T08:59:35.041Z,97.49
2022-12-01T09:00:35.058Z,97.64
2022-12-01T09:01:35.069Z,97.53
2022-12-01T09:02:35.206Z,97.43
2022-12-01T09:03:35.036Z,97.33
2022-12-01T09:04:34.997Z,97.64
2022-12-01T09:05:43.537Z,97.33
2022-12-01T09:06:42.524Z,97.43
2022-12-01T09:07:35.005Z,97.53
2022-12-01T09:08:34.959Z,97.22
2022-12-01T09:09:34.987Z,97.33
2022-12-01T09:10:34.929Z,97.12
2022-12-01T09:11:34.913Z,97.43
2022-12-01T09:12:34.906Z,97.22
2022-12-01T09:13:34.892Z,97.53
2022-12-01T09:14:34.920Z,96.80
2022-12-01T09:15:34.883Z,96.91
2022-12-01T09:16:34.980Z,97.22
2022-12-01T09:17:34.857Z,96.59
2022-12-01T09:18:34.848Z,97.22
2022-12-01T09:19:34.842Z,97.17
2022-12-01T09:20:34.827Z,97.28
2022-12-01T09:21:34.813Z,96.66
2022-12-01T09:22:34.816Z,97.17
2022-12-01T09:23:34.792Z,97.38
2022-12-01T09:24:34.770Z,97.38
2022-12-01T09:25:34.777Z,97.59
2022-12-01T09:26:34.752Z,96.76
2022-12-01T09:27:34.747Z,96.76
2022-12-01T09:28:34.754Z,96.20
2022-12-01T09:29:34.734Z,95.83
2022-12-01T09:30:34.706Z,96.24
2022-12-01T09:31:34.876Z,96.14
2022-12-01T09:32:34.716Z,95.83
2022-12-01T09:33:34.719Z,95.72
2022-12-01T09:34:34.684Z,95.72
2022-12-01T09:35:34.669Z,96.34
2022-12-01T09:36:34.650Z,96.45
2022-12-01T09:37:34.639Z,96.45
2022-12-01T09:38:34.626Z,96.61
2022-12-01T09:39:34.650Z,96.14
2022-12-01T09:40:34.618Z,96.76
2022-12-01T09:41:34.601Z,97.07
2022-12-01T09:42:35.646Z,96.24
2022-12-01T09:43:34.592Z,95.67
2022-12-01T09:44:34.589Z,96.09
2022-12-01T09:45:34.569Z,96.03
2022-12-01T09:46:34.633Z,96.24
2022-12-01T09:47:34.545Z,96.66
2022-12-01T09:48:34.567Z,96.34
2022-12-01T09:49:34.516Z,96.09
2022-12-01T09:50:34.518Z,95.57
2022-12-01T09:51:34.488Z,96.09
2022-12-01T09:52:34.505Z,96.30
2022-12-01T09:53:34.498Z,96.41
2022-12-01T09:54:34.488Z,96.20
2022-12-01T09:55:34.471Z,96.30
2022-12-01T09:56:34.444Z,96.61
2022-12-01T09:57:34.434Z,96.30
2022-12-01T09:58:34.432Z,96.30
2022-12-01T09:59:34.410Z,96.30
2022-12-01T10:00:34.488Z,96.20
2022-12-01T10:01:34.472Z,96.25
2022-12-01T10:02:34.449Z,96.72
2022-12-01T10:03:34.374Z,96.98
2022-12-01T10:04:34.376Z,96.88
2022-12-01T10:05:34.384Z,95.78
2022-12-01T10:06:34.399Z,96.09
2022-12-01T10:07:34.451Z,96.20
2022-12-01T10:08:34.313Z,96.20
2022-12-01T10:09:34.332Z,96.51
2022-12-01T10:10:34.312Z,96.30
2022-12-01T10:11:34.302Z,96.20
2022-12-01T10:12:34.270Z,96.61
2022-12-01T10:13:34.261Z,96.61
2022-12-01T10:14:34.262Z,96.25
2022-12-01T10:15:34.236Z,95.63
2022-12-01T10:16:34.284Z,95.94
2022-12-01T10:17:34.223Z,95.21
2022-12-01T10:18:34.206Z,95.11
2022-12-01T10:19:34.194Z,95.36
2022-12-01T10:20:34.213Z,94.95
2022-12-01T10:21:34.187Z,94.74
2022-12-01T10:22:34.198Z,94.53
2022-12-01T10:23:34.160Z,94.53
2022-12-01T10:24:34.152Z,95.05
2022-12-01T10:25:34.139Z,95.15
2022-12-01T10:26:34.121Z,94.95
2022-12-01T10:27:34.150Z,94.84
2022-12-01T10:28:34.103Z,95.26
2022-12-01T10:29:34.089Z,94.74
2022-12-01T10:30:34.074Z,95.21
2022-12-01T10:31:34.126Z,94.95
2022-12-01T10:32:34.060Z,95.05
2022-12-01T10:33:34.062Z,94.53
2022-12-01T10:34:34.052Z,95.05
2022-12-01T10:35:34.041Z,95.15
2022-12-01T10:36:34.030Z,95.01
2022-12-01T10:37:34.037Z,94.43
2022-12-01T10:38:43.579Z,94.80
2022-12-01T10:39:33.991Z,94.90
2022-12-01T10:40:34.003Z,94.64
2022-12-01T10:41:33.966Z,94.28
2022-12-01T10:42:33.979Z,94.53
2022-12-01T10:43:33.993Z,94.84
2022-12-01T10:44:33.963Z,94.74
2022-12-01T10:45:33.997Z,95.05
2022-12-01T10:46:33.918Z,94.53
2022-12-01T10:47:33.911Z,95.21
2022-12-01T10:48:33.892Z,94.90
2022-12-01T10:49:33.904Z,95.11
2022-12-01T10:50:33.870Z,95.21
2022-12-01T10:51:33.866Z,95.01
2022-12-01T10:52:33.860Z,95.15
2022-12-01T10:53:33.842Z,95.05
2022-12-01T10:54:33.837Z,95.26
2022-12-01T10:55:33.844Z,95.36
2022-12-01T10:56:33.820Z,95.94
2022-12-01T10:57:33.797Z,95.57
2022-12-01T10:58:33.787Z,96.04
2022-12-01T10:59:33.794Z,95.63
2022-12-01T11:00:58.620Z,95.11
2022-12-01T11:01:34.929Z,94.70
2022-12-01T11:02:41.847Z,94.70
2022-12-01T11:03:34.081Z,94.80
2022-12-01T11:04:41.571Z,94.80
2022-12-01T11:05:33.732Z,94.90
2022-12-01T11:06:33.725Z,94.59
2022-12-01T11:07:33.742Z,94.70
2022-12-01T11:08:33.701Z,94.90
2022-12-01T11:09:33.673Z,94.80
2022-12-01T11:10:33.678Z,94.80
2022-12-01T11:11:33.670Z,94.80
2022-12-01T11:12:33.644Z,94.80
2022-12-01T11:13:33.634Z,95.05
2022-12-01T11:14:33.632Z,95.32
2022-12-01T11:15:33.609Z,95.47
2022-12-01T11:16:33.668Z,94.95
2022-12-01T11:17:33.587Z,95.89
2022-12-01T11:18:33.714Z,95.78
2022-12-01T11:19:33.608Z,96.82
2022-12-01T11:20:33.697Z,95.67
2022-12-01T11:21:33.556Z,95.47
2022-12-01T11:22:33.536Z,95.99
2022-12-01T11:23:33.521Z,96.61
2022-12-01T11:24:33.563Z,95.94
2022-12-01T11:25:33.531Z,95.63
2022-12-01T11:26:33.518Z,95.63
2022-12-01T11:27:33.479Z,95.73
2022-12-01T11:28:33.487Z,95.73
2022-12-01T11:29:33.462Z,96.36
2022-12-01T11:30:33.454Z,96.15
2022-12-01T11:31:33.527Z,95.63
2022-12-01T11:32:33.430Z,95.32
2022-12-01T11:33:33.463Z,94.74
2022-12-01T11:34:33.408Z,94.70
2022-12-01T11:35:33.397Z,94.64
2022-12-01T11:36:33.383Z,94.49
2022-12-01T11:37:33.413Z,94.22
2022-12-01T11:38:33.354Z,94.43
2022-12-01T11:39:33.360Z,94.18
2022-12-01T11:40:33.357Z,93.80
2022-12-01T11:41:33.329Z,94.32
2022-12-01T11:42:33.322Z,93.70
2022-12-01T11:43:33.310Z,94.01
2022-12-01T11:45:34.300Z,94.43
2022-12-01T11:46:33.290Z,94.43
2022-12-01T11:47:33.268Z,94.01
2022-12-01T11:48:33.269Z,93.91
2022-12-01T11:49:33.266Z,94.12
2022-12-01T11:50:33.400Z,94.49
2022-12-01T11:51:33.224Z,94.84
2022-12-01T11:52:33.242Z,94.32
2022-12-01T11:53:33.214Z,94.22
2022-12-01T11:54:33.191Z,94.07
2022-12-01T11:55:33.222Z,94.49
2022-12-01T11:56:33.189Z,94.38
2022-12-01T11:57:34.871Z,94.70
2022-12-01T11:58:33.191Z,94.49
2022-12-01T11:59:33.156Z,93.97
2022-12-01T12:00:33.169Z,93.97
2022-12-01T12:01:33.135Z,94.28
2022-12-01T12:02:33.152Z,94.01
2022-12-01T12:03:33.170Z,94.22
2022-12-01T12:04:33.096Z,93.97
2022-12-01T12:05:33.104Z,94.12
2022-12-01T12:07:34.138Z,94.43
2022-12-01T12:08:33.116Z,93.97
2022-12-01T12:09:33.039Z,93.97
2022-12-01T12:10:33.148Z,93.66
2022-12-01T12:11:33.029Z,94.18
2022-12-01T12:12:33.020Z,94.22
2022-12-01T12:13:32.993Z,93.55
2022-12-01T12:14:32.989Z,93.55
2022-12-01T12:15:33.008Z,93.14
2022-12-01T12:16:33.699Z,93.45
2022-12-01T12:17:33.035Z,93.55
2022-12-01T12:18:32.962Z,93.39
2022-12-01T12:19:34.347Z,93.18
2022-12-01T12:20:33.945Z,93.03
2022-12-01T12:21:32.931Z,93.03
2022-12-01T12:22:33.029Z,93.45
2022-12-01T12:23:32.897Z,93.24
2022-12-01T12:24:32.876Z,93.45
2022-12-01T12:25:40.485Z,93.55
2022-12-01T12:26:32.879Z,93.35
2022-12-01T12:27:32.886Z,92.86
2022-12-01T12:28:32.875Z,93.14
2022-12-01T12:29:32.852Z,93.18
2022-12-01T12:30:32.905Z,93.07
2022-12-01T12:31:40.375Z,93.24
2022-12-01T12:32:32.871Z,92.82
2022-12-01T12:33:41.022Z,92.72
2022-12-01T12:34:32.808Z,93.18
2022-12-01T12:35:32.768Z,93.55
2022-12-01T12:36:32.778Z,93.45
2022-12-01T12:37:32.750Z,93.07
2022-12-01T12:38:32.765Z,93.35
2022-12-01T12:39:32.747Z,92.51
2022-12-01T12:40:32.727Z,93.14
2022-12-01T12:41:32.711Z,93.14
2022-12-01T12:42:32.701Z,93.03
2022-12-01T12:43:32.692Z,93.55
2022-12-01T12:44:37.032Z,93.35
2022-12-01T12:45:33.664Z,93.14
2022-12-01T12:46:32.725Z,93.45
2022-12-01T12:47:32.633Z,93.55
2022-12-01T12:48:32.741Z,94.18
2022-12-01T12:49:32.626Z,93.62
2022-12-01T12:50:32.614Z,93.45
2022-12-01T12:51:32.645Z,93.14
2022-12-01T12:52:32.591Z,93.24
2022-12-01T12:53:32.573Z,93.35
2022-12-01T12:54:32.631Z,93.14